Saturday, July 21, 2018, 10:42 PM EDT
Back to Local

KLNS, Lancaster Airport

Location: Lititz, PA, United States Lat: 40.117
Local Time: 10:42 PM EDT ( 2:42 GMT) Lon: -76.3
Time Zone: US/Eastern Elev: 403 ft

Show me the last for .
Show Decoded

2018-07-21 21:53 METAR KLNS 220153Z 06014KT 6SM -RA BR BKN010 OVC013 17/17 A2981 RMK AO2 CIG
                 008V012 SLP093 P0003 T01720167 =
2018-07-21 21:20 METAR KLNS 220120Z 07014G22KT 10SM -RA OVC013 17/16 A2982 RMK AO2 P0002
                 T01720161 =
2018-07-21 20:53 METAR KLNS 220053Z 06014G20KT 7SM RA BKN015 OVC020 17/16 A2984 RMK AO2 PK WND
                 07026/2359 SLP103 P0004 T01670156 =
2018-07-21 20:28 METAR KLNS 220028Z 07013G22KT 10SM -RA BKN016 BKN021 OVC032 17/15 A2985 RMK AO2
                 PK WND 07026/2359 P0002 T01670150 =
2018-07-21 19:59 METAR KLNS 212359Z 07019G26KT 4SM -RA BR FEW009 BKN034 OVC060 17/16 A2986 RMK
                 AO2 PK WND 07026/2359 P0000 T01670156 =
2018-07-21 19:53 METAR KLNS 212353Z 06019G25KT 5SM -RA BR BKN012 BKN018 OVC055 17/16 A2986 RMK
                 AO2 SLP109 P0014 60076 T01670156 10194 20167 58023 =
2018-07-21 19:50 METAR KLNS 212350Z 06018G24KT 4SM -RA BR SCT009 BKN012 OVC040 17/16 A2986 RMK
                 AO2 P0013 =
2018-07-21 19:35 METAR KLNS 212335Z 06015KT 2SM +RA BR OVC012 17/16 A2987 RMK AO2 P0011 T01720161
                 =
2018-07-21 19:02 METAR KLNS 212302Z 07015KT 3SM RA BR OVC014 18/17 A2988 RMK AO2 P0003 T01780167
                 =
2018-07-21 18:53 METAR KLNS 212253Z 06012KT 4SM RA BR OVC016 18/17 A2989 RMK AO2 SLP119 P0006
                 T01780167 =
2018-07-21 18:36 METAR KLNS 212236Z 06014KT 9SM -RA BKN016 OVC020 18/17 A2989 RMK AO2 P0003
                 T01830167 =
2018-07-21 18:17 METAR KLNS 212217Z 07014G20KT 8SM -RA BKN013 OVC021 19/18 A2990 RMK AO2 P0001
                 T01890178 =
2018-07-21 18:05 METAR KLNS 212205Z 07013KT 8SM -RA SCT016 BKN023 OVC036 19/18 A2990 RMK AO2
                 P0001 T01890178 =
2018-07-21 17:53 METAR KLNS 212153Z 06012KT 4SM RA BR FEW010 SCT015 OVC038 19/18 A2991 RMK AO2
                 SLP126 P0018 T01890178 =
2018-07-21 17:29 METAR KLNS 212129Z 06014KT 3SM RA BR FEW008 SCT023 OVC042 19/18 A2992 RMK AO2
                 P0014 T01890178 =
2018-07-21 17:25 METAR KLNS 212125Z 06014KT 2 1/2SM RA BR SCT008 BKN021 OVC047 19/18 A2992 RMK
                 AO2 P0014 T01890183 =
2018-07-21 17:17 METAR KLNS 212117Z 07011KT 2SM +RA BR SCT006 BKN042 OVC050 19/18 A2993 RMK AO2
                 P0011 T01940183 =
2018-07-21 17:09 METAR KLNS 212109Z 08013KT 3SM RA BR FEW009 BKN047 OVC060 19/18 A2993 RMK AO2
                 P0006 T01940183 =
2018-07-21 17:02 METAR KLNS 212102Z 07013KT 2 1/2SM RA BR SCT015 BKN047 OVC055 19/19 A2993 RMK
                 AO2 P0003 T01940189 =
2018-07-21 16:53 METAR KLNS 212053Z 07012KT 3SM RA BR FEW015 OVC047 19/18 A2993 RMK AO2 SLP132
                 P0010 60038 T01940183 56020 =
2018-07-21 15:53 METAR KLNS 211953Z 05011G18KT 6SM -RA BR OVC060 19/18 A2994 RMK AO2 SLP136 P0009
                 T01940183 =
2018-07-21 15:04 METAR KLNS 211904Z 05009KT 3SM RA BR FEW039 BKN060 OVC075 19/18 A2996 RMK AO2
                 P0003 T01940183 =
2018-07-21 14:53 METAR KLNS 211853Z 05010KT 2 1/2SM +RA BR OVC055 19/18 A2996 RMK AO2 SLP145
                 P0019 T01940178 =
2018-07-21 14:34 METAR KLNS 211834Z 06009KT 3SM RA BR SCT045 OVC055 19/18 A2997 RMK AO2 P0013
                 T01940183 =
2018-07-21 14:27 METAR KLNS 211827Z 07008KT 2 1/2SM RA BR SCT045 BKN055 OVC090 19/18 A2998 RMK
                 AO2 P0012 T01940183 =
2018-07-21 13:53 METAR KLNS 211753Z 07007KT 5SM RA BR FEW055 BKN100 OVC110 19/18 A2999 RMK AO2
                 SLP152 P0011 60017 T01940183 10228 20194 58014 =
2018-07-21 12:53 METAR KLNS 211653Z 08007KT 6SM RA BR FEW070 BKN095 OVC110 20/18 A3001 RMK AO2
                 RAB1557 SLP159 P0004 T02000178 =
2018-07-21 11:53 METAR KLNS 211553Z 08009KT 10SM OVC070 21/18 A3002 RMK AO2 RAE47 SLP164 P0001
                 T02110178 =
2018-07-21 11:13 METAR KLNS 211513Z 09008KT 7SM -RA SCT027 OVC070 21/18 A3003 RMK AO2 P0001
                 T02110183 =
2018-07-21 11:02 METAR KLNS 211502Z 09007KT 6SM -RA BKN026 BKN037 OVC075 21/18 A3003 RMK AO2
                 P0000 T02110183 =
2018-07-21 10:53 METAR KLNS 211453Z 10009KT 7SM -RA SCT027 BKN035 OVC075 21/18 A3003 RMK AO2
                 RAB35 SLP166 P0001 60001 T02110178 55001 =
2018-07-21 09:53 METAR KLNS 211353Z 08008KT 10SM FEW030 SCT038 BKN075 22/17 A3003 RMK AO2 SLP166
                 T02220172 =
2018-07-21 08:53 METAR KLNS 211253Z 09008KT 10SM SCT029 SCT110 21/17 A3002 RMK AO2 SLP163
                 T02110167 =
2018-07-21 07:53 METAR KLNS 211153Z 08008KT 10SM FEW036 21/17 A3003 RMK AO2 SLP166 T02110167
                 10211 20172 55000 =
2018-07-21 06:53 METAR KLNS 211053Z 08006KT 10SM FEW022 19/16 A3003 RMK AO2 SLP166 T01890161 =
2018-07-21 06:50 METAR KLNS 211050Z 08006KT 10SM SCT022 18/16 A3003 RMK AO2 =
2018-07-21 06:34 METAR KLNS 211034Z 08005KT 10SM BKN022 18/16 A3003 RMK AO2 T01830161 =
2018-07-21 05:53 METAR KLNS 210953Z 07006KT 10SM CLR 17/16 A3003 RMK AO2 SLP166 T01720156 =
2018-07-21 04:53 METAR KLNS 210853Z AUTO 09006KT 10SM CLR 19/16 A3003 RMK AO2 SLP165 T01890161
                 56013 =
2018-07-21 03:53 METAR KLNS 210753Z AUTO 10006KT 10SM CLR 18/16 A3004 RMK AO2 SLP169 T01830161 =
2018-07-21 02:53 METAR KLNS 210653Z AUTO 09004KT 10SM CLR 18/16 A3005 RMK AO2 SLP172 T01780161 =
2018-07-21 01:53 METAR KLNS 210553Z AUTO 07005KT 10SM CLR 19/16 A3007 RMK AO2 SLP179 T01890161
                 10256 20189 58003 =
2018-07-21 00:53 METAR KLNS 210453Z AUTO 12006KT 10SM CLR 21/16 A3008 RMK AO2 SLP181 T02060161
                 403060167 =
2018-07-20 23:53 METAR KLNS 210353Z AUTO 11006KT 10SM CLR 21/16 A3008 RMK AO2 SLP182 T02060161 =
2018-07-20 22:53 METAR KLNS 210253Z 12007KT 10SM CLR 21/16 A3008 RMK AO2 SLP182 T02110161 50005 =

Support USWX by starting your Amazon purchase here.